sensor_id;sensor_type;location;lat;lon;timestamp;temperature;humidity
32201;DHT22;18701;45.588;5.288;2024-01-06T00:00:16;7.30;99.90
32201;DHT22;18701;45.588;5.288;2024-01-06T00:02:42;7.20;99.90
32201;DHT22;18701;45.588;5.288;2024-01-06T00:05:07;7.10;99.90
32201;DHT22;18701;45.588;5.288;2024-01-06T00:07:33;7.10;99.90
32201;DHT22;18701;45.588;5.288;2024-01-06T00:09:59;7.20;99.90
32201;DHT22;18701;45.588;5.288;2024-01-06T00:12:24;7.10;99.90
32201;DHT22;18701;45.588;5.288;2024-01-06T00:14:50;7.10;99.90
32201;DHT22;18701;45.588;5.288;2024-01-06T00:17:16;7.00;99.90
32201;DHT22;18701;45.588;5.288;2024-01-06T00:19:42;7.00;99.90
32201;DHT22;18701;45.588;5.288;2024-01-06T00:22:08;7.00;99.90
32201;DHT22;18701;45.588;5.288;2024-01-06T00:24:33;7.00;99.90
32201;DHT22;18701;45.588;5.288;2024-01-06T00:26:59;6.90;99.90
32201;DHT22;18701;45.588;5.288;2024-01-06T00:29:24;7.00;99.90
32201;DHT22;18701;45.588;5.288;2024-01-06T00:31:50;7.10;99.90
32201;DHT22;18701;45.588;5.288;2024-01-06T00:34:16;6.90;99.90
32201;DHT22;18701;45.588;5.288;2024-01-06T00:36:41;6.90;99.90
32201;DHT22;18701;45.588;5.288;2024-01-06T00:39:07;6.90;99.90
32201;DHT22;18701;45.588;5.288;2024-01-06T00:41:33;7.00;99.90
32201;DHT22;18701;45.588;5.288;2024-01-06T00:44:00;6.90;99.90
32201;DHT22;18701;45.588;5.288;2024-01-06T00:46:26;6.80;99.90
32201;DHT22;18701;45.588;5.288;2024-01-06T00:48:51;6.90;99.90
32201;DHT22;18701;45.588;5.288;2024-01-06T00:51:17;6.80;99.90
32201;DHT22;18701;45.588;5.288;2024-01-06T00:53:43;6.80;99.90
32201;DHT22;18701;45.588;5.288;2024-01-06T00:56:08;6.90;99.90
32201;DHT22;18701;45.588;5.288;2024-01-06T00:58:34;6.90;99.90
32201;DHT22;18701;45.588;5.288;2024-01-06T01:00:59;6.90;99.90
32201;DHT22;18701;45.588;5.288;2024-01-06T01:03:25;6.90;99.90
32201;DHT22;18701;45.588;5.288;2024-01-06T01:05:51;6.70;99.90
32201;DHT22;18701;45.588;5.288;2024-01-06T01:08:16;6.80;99.90
32201;DHT22;18701;45.588;5.288;2024-01-06T01:10:42;6.90;99.90
32201;DHT22;18701;45.588;5.288;2024-01-06T01:13:08;6.80;99.90
32201;DHT22;18701;45.588;5.288;2024-01-06T01:15:34;6.80;99.90
32201;DHT22;18701;45.588;5.288;2024-01-06T01:18:00;6.80;99.90
32201;DHT22;18701;45.588;5.288;2024-01-06T01:20:25;6.80;99.90
32201;DHT22;18701;45.588;5.288;2024-01-06T01:22:51;6.90;99.90
32201;DHT22;18701;45.588;5.288;2024-01-06T01:25:17;6.80;99.90
32201;DHT22;18701;45.588;5.288;2024-01-06T01:27:42;6.70;99.90
32201;DHT22;18701;45.588;5.288;2024-01-06T01:30:08;6.70;99.90
32201;DHT22;18701;45.588;5.288;2024-01-06T01:32:34;6.70;99.90
32201;DHT22;18701;45.588;5.288;2024-01-06T01:34:59;6.70;99.90
32201;DHT22;18701;45.588;5.288;2024-01-06T01:37:25;6.60;99.90
32201;DHT22;18701;45.588;5.288;2024-01-06T01:39:50;6.70;99.90
32201;DHT22;18701;45.588;5.288;2024-01-06T01:42:16;6.70;99.90
32201;DHT22;18701;45.588;5.288;2024-01-06T01:44:42;6.70;99.90
32201;DHT22;18701;45.588;5.288;2024-01-06T01:47:07;6.80;99.90
32201;DHT22;18701;45.588;5.288;2024-01-06T01:49:33;6.70;99.90
32201;DHT22;18701;45.588;5.288;2024-01-06T01:51:59;6.60;99.90
32201;DHT22;18701;45.588;5.288;2024-01-06T01:54:25;6.50;99.90
32201;DHT22;18701;45.588;5.288;2024-01-06T01:56:51;6.60;99.90
32201;DHT22;18701;45.588;5.288;2024-01-06T01:59:18;6.60;99.90
32201;DHT22;18701;45.588;5.288;2024-01-06T02:01:44;6.50;99.90
32201;DHT22;18701;45.588;5.288;2024-01-06T02:04:10;6.60;99.90
32201;DHT22;18701;45.588;5.288;2024-01-06T02:06:35;6.40;99.90
32201;DHT22;18701;45.588;5.288;2024-01-06T02:09:01;6.50;99.90
32201;DHT22;18701;45.588;5.288;2024-01-06T02:11:27;6.60;99.90
32201;DHT22;18701;45.588;5.288;2024-01-06T02:13:52;6.50;99.90
32201;DHT22;18701;45.588;5.288;2024-01-06T02:16:18;6.50;99.90
32201;DHT22;18701;45.588;5.288;2024-01-06T02:18:44;6.40;99.90
32201;DHT22;18701;45.588;5.288;2024-01-06T02:21:09;6.40;99.90
32201;DHT22;18701;45.588;5.288;2024-01-06T02:23:36;6.40;99.90
32201;DHT22;18701;45.588;5.288;2024-01-06T02:26:02;6.60;99.90
32201;DHT22;18701;45.588;5.288;2024-01-06T02:28:28;6.70;99.90
32201;DHT22;18701;45.588;5.288;2024-01-06T02:30:54;6.60;99.90
32201;DHT22;18701;45.588;5.288;2024-01-06T02:33:19;6.40;99.90
32201;DHT22;18701;45.588;5.288;2024-01-06T02:35:48;6.40;99.90
32201;DHT22;18701;45.588;5.288;2024-01-06T02:38:13;6.50;99.90
32201;DHT22;18701;45.588;5.288;2024-01-06T02:40:39;6.50;99.90
32201;DHT22;18701;45.588;5.288;2024-01-06T02:43:05;6.60;99.90
32201;DHT22;18701;45.588;5.288;2024-01-06T02:45:30;6.50;99.90
32201;DHT22;18701;45.588;5.288;2024-01-06T02:47:56;6.50;99.90
32201;DHT22;18701;45.588;5.288;2024-01-06T02:50:21;6.50;99.90
32201;DHT22;18701;45.588;5.288;2024-01-06T02:52:47;6.50;99.90
32201;DHT22;18701;45.588;5.288;2024-01-06T02:55:13;6.60;99.90
32201;DHT22;18701;45.588;5.288;2024-01-06T02:57:40;6.50;99.90
32201;DHT22;18701;45.588;5.288;2024-01-06T03:00:07;6.50;99.90
32201;DHT22;18701;45.588;5.288;2024-01-06T03:02:33;6.40;99.90
32201;DHT22;18701;45.588;5.288;2024-01-06T03:04:58;6.40;99.90
32201;DHT22;18701;45.588;5.288;2024-01-06T03:07:24;6.30;99.90
32201;DHT22;18701;45.588;5.288;2024-01-06T03:09:49;6.30;99.90
32201;DHT22;18701;45.588;5.288;2024-01-06T03:12:15;6.40;99.90
32201;DHT22;18701;45.588;5.288;2024-01-06T03:14:41;6.50;99.90
32201;DHT22;18701;45.588;5.288;2024-01-06T03:17:06;6.50;99.90
32201;DHT22;18701;45.588;5.288;2024-01-06T03:19:32;6.40;99.90
32201;DHT22;18701;45.588;5.288;2024-01-06T03:21:57;6.30;99.90
32201;DHT22;18701;45.588;5.288;2024-01-06T03:24:25;6.20;99.90
32201;DHT22;18701;45.588;5.288;2024-01-06T03:26:51;6.30;99.90
32201;DHT22;18701;45.588;5.288;2024-01-06T03:29:16;6.20;99.90
32201;DHT22;18701;45.588;5.288;2024-01-06T03:31:45;6.20;99.90
32201;DHT22;18701;45.588;5.288;2024-01-06T03:34:11;6.20;99.90
32201;DHT22;18701;45.588;5.288;2024-01-06T03:36:37;6.30;99.90
32201;DHT22;18701;45.588;5.288;2024-01-06T03:39:03;6.20;99.90
32201;DHT22;18701;45.588;5.288;2024-01-06T03:41:29;6.30;99.90
32201;DHT22;18701;45.588;5.288;2024-01-06T03:43:54;6.20;99.90
32201;DHT22;18701;45.588;5.288;2024-01-06T03:46:20;6.20;99.90
32201;DHT22;18701;45.588;5.288;2024-01-06T03:48:46;6.20;99.90
32201;DHT22;18701;45.588;5.288;2024-01-06T03:51:12;6.30;99.90
32201;DHT22;18701;45.588;5.288;2024-01-06T03:53:38;6.30;99.90
32201;DHT22;18701;45.588;5.288;2024-01-06T03:56:05;6.10;99.90
32201;DHT22;18701;45.588;5.288;2024-01-06T03:58:31;6.10;99.90
32201;DHT22;18701;45.588;5.288;2024-01-06T04:00:56;6.20;99.90
32201;DHT22;18701;45.588;5.288;2024-01-06T04:03:22;6.00;99.90
32201;DHT22;18701;45.588;5.288;2024-01-06T04:05:48;6.00;99.90
32201;DHT22;18701;45.588;5.288;2024-01-06T04:08:13;6.10;99.90
32201;DHT22;18701;45.588;5.288;2024-01-06T04:10:39;6.10;99.90
32201;DHT22;18701;45.588;5.288;2024-01-06T04:13:07;6.00;99.90
32201;DHT22;18701;45.588;5.288;2024-01-06T04:15:32;6.10;99.90
32201;DHT22;18701;45.588;5.288;2024-01-06T04:18:02;6.00;99.90
32201;DHT22;18701;45.588;5.288;2024-01-06T04:20:28;5.90;99.90
32201;DHT22;18701;45.588;5.288;2024-01-06T04:22:54;5.90;99.90
32201;DHT22;18701;45.588;5.288;2024-01-06T04:25:19;5.90;99.90
32201;DHT22;18701;45.588;5.288;2024-01-06T04:27:45;5.90;99.90
32201;DHT22;18701;45.588;5.288;2024-01-06T04:30:12;6.10;99.90
32201;DHT22;18701;45.588;5.288;2024-01-06T04:32:38;6.00;99.90
32201;DHT22;18701;45.588;5.288;2024-01-06T04:35:04;5.90;99.90
32201;DHT22;18701;45.588;5.288;2024-01-06T04:37:30;5.90;99.90
32201;DHT22;18701;45.588;5.288;2024-01-06T04:39:57;5.90;99.90
32201;DHT22;18701;45.588;5.288;2024-01-06T04:42:22;5.90;99.90
32201;DHT22;18701;45.588;5.288;2024-01-06T04:44:49;6.00;99.90
32201;DHT22;18701;45.588;5.288;2024-01-06T04:47:14;5.90;99.90
32201;DHT22;18701;45.588;5.288;2024-01-06T04:49:40;6.00;99.90
32201;DHT22;18701;45.588;5.288;2024-01-06T04:52:05;5.90;99.90
32201;DHT22;18701;45.588;5.288;2024-01-06T04:54:31;5.70;99.90
32201;DHT22;18701;45.588;5.288;2024-01-06T04:56:58;5.80;99.90
32201;DHT22;18701;45.588;5.288;2024-01-06T04:59:24;5.70;99.90
32201;DHT22;18701;45.588;5.288;2024-01-06T05:01:50;5.80;99.90
32201;DHT22;18701;45.588;5.288;2024-01-06T05:04:17;5.70;99.90
32201;DHT22;18701;45.588;5.288;2024-01-06T05:06:43;5.80;99.90
32201;DHT22;18701;45.588;5.288;2024-01-06T05:09:08;5.80;99.90
32201;DHT22;18701;45.588;5.288;2024-01-06T05:11:34;5.80;99.90
32201;DHT22;18701;45.588;5.288;2024-01-06T05:14:00;5.60;99.90
32201;DHT22;18701;45.588;5.288;2024-01-06T05:16:26;5.70;99.90
32201;DHT22;18701;45.588;5.288;2024-01-06T05:18:53;5.70;99.90
32201;DHT22;18701;45.588;5.288;2024-01-06T05:21:18;5.70;99.90
32201;DHT22;18701;45.588;5.288;2024-01-06T05:23:44;5.70;99.90
32201;DHT22;18701;45.588;5.288;2024-01-06T05:26:10;5.70;99.90
32201;DHT22;18701;45.588;5.288;2024-01-06T05:28:37;5.60;99.90
32201;DHT22;18701;45.588;5.288;2024-01-06T05:31:02;5.80;99.90
32201;DHT22;18701;45.588;5.288;2024-01-06T05:33:28;5.70;99.90
32201;DHT22;18701;45.588;5.288;2024-01-06T05:35:53;5.70;99.90
32201;DHT22;18701;45.588;5.288;2024-01-06T05:38:19;5.70;99.90
32201;DHT22;18701;45.588;5.288;2024-01-06T05:40:44;5.60;99.90
32201;DHT22;18701;45.588;5.288;2024-01-06T05:43:10;5.60;99.90
32201;DHT22;18701;45.588;5.288;2024-01-06T05:45:36;5.60;99.90
32201;DHT22;18701;45.588;5.288;2024-01-06T05:48:03;5.60;99.90
32201;DHT22;18701;45.588;5.288;2024-01-06T05:50:29;5.60;99.90
32201;DHT22;18701;45.588;5.288;2024-01-06T05:52:55;5.60;99.90
32201;DHT22;18701;45.588;5.288;2024-01-06T05:55:21;5.60;99.90
32201;DHT22;18701;45.588;5.288;2024-01-06T05:57:47;5.60;99.90
32201;DHT22;18701;45.588;5.288;2024-01-06T06:00:13;5.60;99.90
32201;DHT22;18701;45.588;5.288;2024-01-06T06:02:39;5.60;99.90
32201;DHT22;18701;45.588;5.288;2024-01-06T06:05:05;5.60;99.90
32201;DHT22;18701;45.588;5.288;2024-01-06T06:07:30;5.50;99.90
32201;DHT22;18701;45.588;5.288;2024-01-06T06:09:56;5.50;99.90
32201;DHT22;18701;45.588;5.288;2024-01-06T06:12:22;5.50;99.90
32201;DHT22;18701;45.588;5.288;2024-01-06T06:14:47;5.60;99.90
32201;DHT22;18701;45.588;5.288;2024-01-06T06:17:13;5.60;99.90
32201;DHT22;18701;45.588;5.288;2024-01-06T06:19:38;5.60;99.90
32201;DHT22;18701;45.588;5.288;2024-01-06T06:22:04;5.60;99.90
32201;DHT22;18701;45.588;5.288;2024-01-06T06:24:30;5.60;99.90
32201;DHT22;18701;45.588;5.288;2024-01-06T06:26:55;5.60;99.90
32201;DHT22;18701;45.588;5.288;2024-01-06T06:29:21;5.60;99.90
32201;DHT22;18701;45.588;5.288;2024-01-06T06:31:46;5.30;99.90
32201;DHT22;18701;45.588;5.288;2024-01-06T06:34:12;5.60;99.90
32201;DHT22;18701;45.588;5.288;2024-01-06T06:36:38;5.60;99.90
32201;DHT22;18701;45.588;5.288;2024-01-06T06:39:04;5.40;99.90
32201;DHT22;18701;45.588;5.288;2024-01-06T06:41:30;5.40;99.90
32201;DHT22;18701;45.588;5.288;2024-01-06T06:43:57;5.40;99.90
32201;DHT22;18701;45.588;5.288;2024-01-06T06:46:23;5.50;99.90
32201;DHT22;18701;45.588;5.288;2024-01-06T06:48:49;5.50;99.90
32201;DHT22;18701;45.588;5.288;2024-01-06T06:51:15;5.40;99.90
32201;DHT22;18701;45.588;5.288;2024-01-06T06:53:41;5.40;99.90
32201;DHT22;18701;45.588;5.288;2024-01-06T06:56:07;5.40;99.90
32201;DHT22;18701;45.588;5.288;2024-01-06T06:58:32;5.60;99.90
32201;DHT22;18701;45.588;5.288;2024-01-06T07:00:58;5.50;99.90
32201;DHT22;18701;45.588;5.288;2024-01-06T07:03:24;5.40;99.90
32201;DHT22;18701;45.588;5.288;2024-01-06T07:05:50;5.20;99.90
32201;DHT22;18701;45.588;5.288;2024-01-06T07:08:15;5.40;99.90
32201;DHT22;18701;45.588;5.288;2024-01-06T07:10:42;5.20;99.90
32201;DHT22;18701;45.588;5.288;2024-01-06T07:13:07;5.30;99.90
32201;DHT22;18701;45.588;5.288;2024-01-06T07:15:33;5.20;99.90
32201;DHT22;18701;45.588;5.288;2024-01-06T07:17:58;5.20;99.90
32201;DHT22;18701;45.588;5.288;2024-01-06T07:20:24;5.10;99.90
32201;DHT22;18701;45.588;5.288;2024-01-06T07:22:49;5.10;99.90
32201;DHT22;18701;45.588;5.288;2024-01-06T07:25:15;5.20;99.90
32201;DHT22;18701;45.588;5.288;2024-01-06T07:27:41;5.20;99.90
32201;DHT22;18701;45.588;5.288;2024-01-06T07:30:07;5.10;99.90
32201;DHT22;18701;45.588;5.288;2024-01-06T07:32:35;5.20;99.90
32201;DHT22;18701;45.588;5.288;2024-01-06T07:35:01;5.20;99.90
32201;DHT22;18701;45.588;5.288;2024-01-06T07:37:27;5.40;99.90
32201;DHT22;18701;45.588;5.288;2024-01-06T07:39:53;5.30;99.90
32201;DHT22;18701;45.588;5.288;2024-01-06T07:42:19;5.20;99.90
32201;DHT22;18701;45.588;5.288;2024-01-06T07:44:44;5.20;99.90
32201;DHT22;18701;45.588;5.288;2024-01-06T07:47:10;5.10;99.90
32201;DHT22;18701;45.588;5.288;2024-01-06T07:49:36;5.00;99.90
32201;DHT22;18701;45.588;5.288;2024-01-06T07:52:02;5.10;99.90
32201;DHT22;18701;45.588;5.288;2024-01-06T07:54:27;5.00;99.90
32201;DHT22;18701;45.588;5.288;2024-01-06T07:56:53;5.10;99.90
32201;DHT22;18701;45.588;5.288;2024-01-06T07:59:19;5.10;99.90
32201;DHT22;18701;45.588;5.288;2024-01-06T08:01:44;5.10;99.90
32201;DHT22;18701;45.588;5.288;2024-01-06T08:04:10;5.10;99.90
32201;DHT22;18701;45.588;5.288;2024-01-06T08:06:35;5.10;99.90
32201;DHT22;18701;45.588;5.288;2024-01-06T08:09:01;5.00;99.90
32201;DHT22;18701;45.588;5.288;2024-01-06T08:11:27;4.90;99.90
32201;DHT22;18701;45.588;5.288;2024-01-06T08:13:52;5.00;99.90
32201;DHT22;18701;45.588;5.288;2024-01-06T08:16:18;4.90;99.90
32201;DHT22;18701;45.588;5.288;2024-01-06T08:18:44;5.10;99.90
32201;DHT22;18701;45.588;5.288;2024-01-06T08:21:11;5.00;99.90
32201;DHT22;18701;45.588;5.288;2024-01-06T08:23:36;5.00;99.90
32201;DHT22;18701;45.588;5.288;2024-01-06T08:26:02;5.10;99.90
32201;DHT22;18701;45.588;5.288;2024-01-06T08:28:29;5.00;99.90
32201;DHT22;18701;45.588;5.288;2024-01-06T08:30:55;4.90;99.90
32201;DHT22;18701;45.588;5.288;2024-01-06T08:33:21;5.10;99.90
32201;DHT22;18701;45.588;5.288;2024-01-06T08:35:47;5.10;99.90
32201;DHT22;18701;45.588;5.288;2024-01-06T08:38:12;5.00;99.90
32201;DHT22;18701;45.588;5.288;2024-01-06T08:40:38;5.00;99.90
32201;DHT22;18701;45.588;5.288;2024-01-06T08:43:03;5.00;99.90
32201;DHT22;18701;45.588;5.288;2024-01-06T08:45:29;5.00;99.90
32201;DHT22;18701;45.588;5.288;2024-01-06T08:47:55;5.20;99.90
32201;DHT22;18701;45.588;5.288;2024-01-06T08:50:21;5.00;99.90
32201;DHT22;18701;45.588;5.288;2024-01-06T08:52:46;4.90;99.90
32201;DHT22;18701;45.588;5.288;2024-01-06T08:55:12;5.00;99.90
32201;DHT22;18701;45.588;5.288;2024-01-06T08:57:37;5.00;99.90
32201;DHT22;18701;45.588;5.288;2024-01-06T09:00:04;5.10;99.90
32201;DHT22;18701;45.588;5.288;2024-01-06T09:02:30;5.20;99.90
32201;DHT22;18701;45.588;5.288;2024-01-06T09:04:56;5.30;99.90
32201;DHT22;18701;45.588;5.288;2024-01-06T09:07:22;5.40;99.90
32201;DHT22;18701;45.588;5.288;2024-01-06T09:09:47;5.30;99.90
32201;DHT22;18701;45.588;5.288;2024-01-06T09:12:13;5.30;99.90
32201;DHT22;18701;45.588;5.288;2024-01-06T09:14:38;5.40;99.90
32201;DHT22;18701;45.588;5.288;2024-01-06T09:17:04;5.50;99.90
32201;DHT22;18701;45.588;5.288;2024-01-06T09:19:30;5.40;99.90
32201;DHT22;18701;45.588;5.288;2024-01-06T09:21:56;5.40;99.90
32201;DHT22;18701;45.588;5.288;2024-01-06T09:24:22;5.40;99.90
32201;DHT22;18701;45.588;5.288;2024-01-06T09:26:48;5.40;99.90
32201;DHT22;18701;45.588;5.288;2024-01-06T09:29:15;5.40;99.90
32201;DHT22;18701;45.588;5.288;2024-01-06T09:31:41;5.50;99.90
32201;DHT22;18701;45.588;5.288;2024-01-06T09:34:09;5.60;99.90
32201;DHT22;18701;45.588;5.288;2024-01-06T09:36:35;5.40;99.90
32201;DHT22;18701;45.588;5.288;2024-01-06T09:39:01;5.60;99.90
32201;DHT22;18701;45.588;5.288;2024-01-06T09:41:26;5.70;99.90
32201;DHT22;18701;45.588;5.288;2024-01-06T09:43:52;5.70;99.90
32201;DHT22;18701;45.588;5.288;2024-01-06T09:46:24;5.90;99.90
32201;DHT22;18701;45.588;5.288;2024-01-06T09:48:52;5.80;99.90
32201;DHT22;18701;45.588;5.288;2024-01-06T09:51:19;5.90;99.90
32201;DHT22;18701;45.588;5.288;2024-01-06T09:53:53;5.70;99.90
32201;DHT22;18701;45.588;5.288;2024-01-06T09:56:24;5.80;99.90
32201;DHT22;18701;45.588;5.288;2024-01-06T09:58:50;6.00;99.90
32201;DHT22;18701;45.588;5.288;2024-01-06T10:01:17;6.00;99.90
32201;DHT22;18701;45.588;5.288;2024-01-06T10:03:43;6.10;99.90
32201;DHT22;18701;45.588;5.288;2024-01-06T10:06:11;6.10;99.90
32201;DHT22;18701;45.588;5.288;2024-01-06T10:08:37;6.20;99.90
32201;DHT22;18701;45.588;5.288;2024-01-06T10:11:06;6.00;99.90
32201;DHT22;18701;45.588;5.288;2024-01-06T10:13:33;6.00;99.90
32201;DHT22;18701;45.588;5.288;2024-01-06T10:15:59;6.10;99.90
32201;DHT22;18701;45.588;5.288;2024-01-06T10:18:25;6.00;99.90
32201;DHT22;18701;45.588;5.288;2024-01-06T10:20:52;6.30;99.90
32201;DHT22;18701;45.588;5.288;2024-01-06T10:23:19;6.40;99.90
32201;DHT22;18701;45.588;5.288;2024-01-06T10:25:44;6.30;99.90
32201;DHT22;18701;45.588;5.288;2024-01-06T10:28:13;6.30;99.90
32201;DHT22;18701;45.588;5.288;2024-01-06T10:30:41;6.40;99.90
32201;DHT22;18701;45.588;5.288;2024-01-06T10:33:10;6.50;99.90
32201;DHT22;18701;45.588;5.288;2024-01-06T10:35:36;6.90;99.90
32201;DHT22;18701;45.588;5.288;2024-01-06T10:38:03;7.10;99.90
32201;DHT22;18701;45.588;5.288;2024-01-06T10:40:29;6.90;99.90
32201;DHT22;18701;45.588;5.288;2024-01-06T10:42:55;7.40;99.90
32201;DHT22;18701;45.588;5.288;2024-01-06T10:45:23;7.10;99.90
32201;DHT22;18701;45.588;5.288;2024-01-06T10:47:49;7.00;99.90
32201;DHT22;18701;45.588;5.288;2024-01-06T10:50:17;7.00;99.90
32201;DHT22;18701;45.588;5.288;2024-01-06T10:52:43;7.20;99.90
32201;DHT22;18701;45.588;5.288;2024-01-06T10:55:09;7.10;99.90
32201;DHT22;18701;45.588;5.288;2024-01-06T10:57:37;7.10;99.90
32201;DHT22;18701;45.588;5.288;2024-01-06T11:00:04;7.10;99.90
32201;DHT22;18701;45.588;5.288;2024-01-06T11:02:31;7.20;99.90
32201;DHT22;18701;45.588;5.288;2024-01-06T11:04:57;7.30;99.90
32201;DHT22;18701;45.588;5.288;2024-01-06T11:07:24;7.40;99.90
32201;DHT22;18701;45.588;5.288;2024-01-06T11:09:57;7.30;99.90
32201;DHT22;18701;45.588;5.288;2024-01-06T11:12:24;7.50;99.90
32201;DHT22;18701;45.588;5.288;2024-01-06T11:14:51;7.60;99.90
32201;DHT22;18701;45.588;5.288;2024-01-06T11:20:15;8.00;99.90
32201;DHT22;18701;45.588;5.288;2024-01-06T11:22:41;9.50;99.90
32201;DHT22;18701;45.588;5.288;2024-01-06T11:25:11;10.70;99.90
32201;DHT22;18701;45.588;5.288;2024-01-06T11:27:38;12.40;99.90
32201;DHT22;18701;45.588;5.288;2024-01-06T11:30:05;9.40;99.90
32201;DHT22;18701;45.588;5.288;2024-01-06T11:32:38;9.80;99.90
32201;DHT22;18701;45.588;5.288;2024-01-06T11:35:11;10.10;99.90
32201;DHT22;18701;45.588;5.288;2024-01-06T11:37:52;9.30;99.90
32201;DHT22;18701;45.588;5.288;2024-01-06T11:42:46;11.50;99.90
32201;DHT22;18701;45.588;5.288;2024-01-06T11:45:13;13.30;99.90
32201;DHT22;18701;45.588;5.288;2024-01-06T11:47:39;12.40;99.90
32201;DHT22;18701;45.588;5.288;2024-01-06T11:50:06;11.30;99.90
32201;DHT22;18701;45.588;5.288;2024-01-06T11:52:33;10.60;99.90
32201;DHT22;18701;45.588;5.288;2024-01-06T11:54:59;9.90;99.90
32201;DHT22;18701;45.588;5.288;2024-01-06T11:57:29;9.10;99.90
32201;DHT22;18701;45.588;5.288;2024-01-06T11:59:55;8.80;99.90
32201;DHT22;18701;45.588;5.288;2024-01-06T12:02:21;8.50;99.90
32201;DHT22;18701;45.588;5.288;2024-01-06T12:04:53;8.00;99.90
32201;DHT22;18701;45.588;5.288;2024-01-06T12:07:20;7.80;99.90
32201;DHT22;18701;45.588;5.288;2024-01-06T12:09:47;7.50;99.90
32201;DHT22;18701;45.588;5.288;2024-01-06T12:12:16;7.90;99.90
32201;DHT22;18701;45.588;5.288;2024-01-06T12:14:41;7.90;99.90
32201;DHT22;18701;45.588;5.288;2024-01-06T12:17:09;7.80;99.90
32201;DHT22;18701;45.588;5.288;2024-01-06T12:19:35;7.60;99.90
32201;DHT22;18701;45.588;5.288;2024-01-06T12:22:01;7.80;99.90
32201;DHT22;18701;45.588;5.288;2024-01-06T12:24:28;7.80;99.90
32201;DHT22;18701;45.588;5.288;2024-01-06T12:26:56;7.70;99.90
32201;DHT22;18701;45.588;5.288;2024-01-06T12:29:26;8.10;99.90
32201;DHT22;18701;45.588;5.288;2024-01-06T12:31:52;7.90;99.90
32201;DHT22;18701;45.588;5.288;2024-01-06T12:34:18;7.70;99.90
32201;DHT22;18701;45.588;5.288;2024-01-06T12:36:43;7.80;99.90
32201;DHT22;18701;45.588;5.288;2024-01-06T12:39:13;7.80;99.90
32201;DHT22;18701;45.588;5.288;2024-01-06T12:41:42;7.50;99.90
32201;DHT22;18701;45.588;5.288;2024-01-06T12:44:09;7.50;99.90
32201;DHT22;18701;45.588;5.288;2024-01-06T12:46:35;7.40;99.90
32201;DHT22;18701;45.588;5.288;2024-01-06T12:49:01;7.30;99.90
32201;DHT22;18701;45.588;5.288;2024-01-06T12:51:26;7.30;99.90
32201;DHT22;18701;45.588;5.288;2024-01-06T12:53:52;7.10;99.90
32201;DHT22;18701;45.588;5.288;2024-01-06T12:56:18;7.20;99.90
32201;DHT22;18701;45.588;5.288;2024-01-06T12:58:44;6.90;99.90
32201;DHT22;18701;45.588;5.288;2024-01-06T13:01:10;6.80;99.90
32201;DHT22;18701;45.588;5.288;2024-01-06T13:03:35;6.80;99.90
32201;DHT22;18701;45.588;5.288;2024-01-06T13:06:02;6.70;99.90
32201;DHT22;18701;45.588;5.288;2024-01-06T13:08:28;6.60;99.90
32201;DHT22;18701;45.588;5.288;2024-01-06T13:10:55;6.60;99.90
32201;DHT22;18701;45.588;5.288;2024-01-06T13:13:21;6.70;99.90
32201;DHT22;18701;45.588;5.288;2024-01-06T13:15:47;6.70;99.90
32201;DHT22;18701;45.588;5.288;2024-01-06T13:18:12;6.90;99.90
32201;DHT22;18701;45.588;5.288;2024-01-06T13:20:39;6.90;99.90
32201;DHT22;18701;45.588;5.288;2024-01-06T13:23:07;6.70;99.90
32201;DHT22;18701;45.588;5.288;2024-01-06T13:25:34;6.60;99.90
32201;DHT22;18701;45.588;5.288;2024-01-06T13:28:00;6.80;99.90
32201;DHT22;18701;45.588;5.288;2024-01-06T13:30:25;6.70;99.90
32201;DHT22;18701;45.588;5.288;2024-01-06T13:32:52;6.70;99.90
32201;DHT22;18701;45.588;5.288;2024-01-06T13:35:20;6.70;99.90
32201;DHT22;18701;45.588;5.288;2024-01-06T13:37:46;6.60;99.90
32201;DHT22;18701;45.588;5.288;2024-01-06T13:40:14;6.80;99.90
32201;DHT22;18701;45.588;5.288;2024-01-06T13:42:40;6.80;99.90
32201;DHT22;18701;45.588;5.288;2024-01-06T13:45:06;7.00;99.90
32201;DHT22;18701;45.588;5.288;2024-01-06T13:47:32;7.00;99.90
32201;DHT22;18701;45.588;5.288;2024-01-06T13:49:58;6.80;99.90
32201;DHT22;18701;45.588;5.288;2024-01-06T13:52:24;6.70;99.90
32201;DHT22;18701;45.588;5.288;2024-01-06T13:54:50;6.70;99.90
32201;DHT22;18701;45.588;5.288;2024-01-06T13:57:15;6.70;99.90
32201;DHT22;18701;45.588;5.288;2024-01-06T13:59:41;6.50;99.90
32201;DHT22;18701;45.588;5.288;2024-01-06T14:02:08;6.30;99.90
32201;DHT22;18701;45.588;5.288;2024-01-06T14:04:34;6.50;99.90
32201;DHT22;18701;45.588;5.288;2024-01-06T14:07:01;6.40;99.90
32201;DHT22;18701;45.588;5.288;2024-01-06T14:09:29;6.50;99.90
32201;DHT22;18701;45.588;5.288;2024-01-06T14:11:54;6.40;99.90
32201;DHT22;18701;45.588;5.288;2024-01-06T14:14:20;6.30;99.90
32201;DHT22;18701;45.588;5.288;2024-01-06T14:16:47;6.20;99.90
32201;DHT22;18701;45.588;5.288;2024-01-06T14:19:13;6.40;99.90
32201;DHT22;18701;45.588;5.288;2024-01-06T14:21:39;6.30;99.90
32201;DHT22;18701;45.588;5.288;2024-01-06T14:24:05;6.20;99.90
32201;DHT22;18701;45.588;5.288;2024-01-06T14:26:31;6.20;99.90
32201;DHT22;18701;45.588;5.288;2024-01-06T14:28:57;6.20;99.90
32201;DHT22;18701;45.588;5.288;2024-01-06T14:31:24;6.20;99.90
32201;DHT22;18701;45.588;5.288;2024-01-06T14:33:50;6.20;99.90
32201;DHT22;18701;45.588;5.288;2024-01-06T14:36:15;6.20;99.90
32201;DHT22;18701;45.588;5.288;2024-01-06T14:38:41;6.30;99.90
32201;DHT22;18701;45.588;5.288;2024-01-06T14:41:07;6.40;99.90
32201;DHT22;18701;45.588;5.288;2024-01-06T14:43:32;6.50;99.90
32201;DHT22;18701;45.588;5.288;2024-01-06T14:45:58;6.40;99.90
32201;DHT22;18701;45.588;5.288;2024-01-06T14:48:23;6.30;99.90
32201;DHT22;18701;45.588;5.288;2024-01-06T14:50:49;6.40;99.90
32201;DHT22;18701;45.588;5.288;2024-01-06T14:53:15;6.30;99.90
32201;DHT22;18701;45.588;5.288;2024-01-06T14:55:41;6.40;99.90
32201;DHT22;18701;45.588;5.288;2024-01-06T14:58:07;6.20;99.90
32201;DHT22;18701;45.588;5.288;2024-01-06T15:00:35;6.20;99.90
32201;DHT22;18701;45.588;5.288;2024-01-06T15:03:01;6.30;99.90
32201;DHT22;18701;45.588;5.288;2024-01-06T15:05:26;6.20;99.90
32201;DHT22;18701;45.588;5.288;2024-01-06T15:07:55;6.30;99.90
32201;DHT22;18701;45.588;5.288;2024-01-06T15:10:20;6.20;99.90
32201;DHT22;18701;45.588;5.288;2024-01-06T15:12:46;6.10;99.90
32201;DHT22;18701;45.588;5.288;2024-01-06T15:15:11;6.20;99.90
32201;DHT22;18701;45.588;5.288;2024-01-06T15:17:37;6.20;99.90
32201;DHT22;18701;45.588;5.288;2024-01-06T15:20:04;6.30;99.90
32201;DHT22;18701;45.588;5.288;2024-01-06T15:22:30;6.20;99.90
32201;DHT22;18701;45.588;5.288;2024-01-06T15:24:55;6.20;99.90
32201;DHT22;18701;45.588;5.288;2024-01-06T15:27:21;6.40;99.90
32201;DHT22;18701;45.588;5.288;2024-01-06T15:29:47;6.20;99.90
32201;DHT22;18701;45.588;5.288;2024-01-06T15:32:12;6.30;99.90
32201;DHT22;18701;45.588;5.288;2024-01-06T15:34:38;6.20;99.90
32201;DHT22;18701;45.588;5.288;2024-01-06T15:37:04;6.30;99.90
32201;DHT22;18701;45.588;5.288;2024-01-06T15:39:29;6.20;99.90
32201;DHT22;18701;45.588;5.288;2024-01-06T15:41:55;6.20;99.90